Stonington Eagle — V7OK7 — position and weather

sailwx.info

Track history (hours):
 
Tides and Currents Weather Stations Pressure Air Temp Water Temp Dewpoint Dewpoint Depression Visibility Wind Speed Wind Dir Waves Ship Positions

Stonington Eagle

Last reported at 2017-Dec-18 14:00 UTC. Time now 2017-Dec-18 14:39 UTC.
Position N 38°04' W 031°15'.

Length 200 m; draft 11.6 m.

Type: Ship. MMSI: 538007450.

Date/timePositionNaut miles runAvg speedWind from/ knotsBaromVisibWave heightAir tempDewpointWater temp
2017-Dec-18 14:00N 38°04' W 031°15'18 9.1
2017-Dec-18 12:02N 38°02' W 030°53'4 9.4
2017-Dec-18 11:34N 38°02' W 030°47'3 9.2
2017-Dec-18 11:16N 38°01' W 030°44'15 9.3
2017-Dec-18 09:36N 37°59' W 030°24'1 9.2
2017-Dec-18 09:30N 37°59' W 030°23'5 9.3
2017-Dec-18 09:00N 37°59' W 030°17'5 9.5
2017-Dec-18 08:30N 37°58' W 030°11'5 9.8
2017-Dec-18 08:00N 37°58' W 030°05'5 9.5
2017-Dec-18 07:30N 37°57' W 029°59'5 9.5
2017-Dec-18 07:00N 37°57' W 029°53'5 9.5
2017-Dec-18 06:30N 37°56' W 029°47'5 9.7
2017-Dec-18 06:00N 37°55' W 029°41'5 9.9
2017-Dec-18 05:30N 37°55' W 029°35'5 9.9
2017-Dec-18 05:00N 37°54' W 029°29'5 9.7
2017-Dec-18 04:30N 37°54' W 029°23'510.2
2017-Dec-18 04:00N 37°53' W 029°16'510.5
2017-Dec-18 03:30N 37°53' W 029°09'510.3
2017-Dec-18 03:00N 37°52' W 029°03'510.4
2017-Dec-18 02:30N 37°52' W 028°56'510.4
2017-Dec-18 02:01N 37°51' W 028°50'510.3
2017-Dec-18 01:30N 37°51' W 028°43'510.6
2017-Dec-18 01:00N 37°50' W 028°37'510.8
2017-Dec-18 00:31N 37°49' W 028°30'510.6
2017-Dec-18 00:00N 37°49' W 028°23'510.6
2017-Dec-17 23:30N 37°48' W 028°17'510.5
2017-Dec-17 23:01N 37°47' W 028°10'510.8
2017-Dec-17 22:31N 37°47' W 028°03'510.8
2017-Dec-17 22:00N 37°46' W 027°57'510.6
2017-Dec-17 21:30N 37°46' W 027°50'510.8
2017-Dec-17 21:01N 37°45' W 027°43'611.0
2017-Dec-17 20:30N 37°44' W 027°36'510.7
2017-Dec-17 20:01N 37°44' W 027°29'510.7
2017-Dec-17 19:31N 37°43' W 027°23'510.7
2017-Dec-17 19:00N 37°43' W 027°16'510.5
2017-Dec-17 18:30N 37°42' W 027°09'510.6
2017-Dec-17 18:00N 37°41' W 027°03'510.8
2017-Dec-17 17:31N 37°41' W 026°56'510.9
2017-Dec-17 17:00N 37°40' W 026°49'510.8
2017-Dec-17 16:31N 37°40' W 026°42'611.1
2017-Dec-17 16:01N 37°39' W 026°35'611.1
2017-Dec-17 15:31N 37°38' W 026°28'510.8
2017-Dec-17 15:00N 37°38' W 026°22'510.8
2017-Dec-17 14:31N 37°37' W 026°15'510.6
2017-Dec-17 14:00N 37°37' W 026°08'510.4
2017-Dec-17 13:31N 37°36' W 026°02'611.0
2017-Dec-17 13:00N 37°35' W 025°55'611.1
2017-Dec-17 12:31N 37°35' W 025°48'510.7
2017-Dec-17 12:01N 37°34' W 025°41'510.7
2017-Dec-17 11:31N 37°34' W 025°35'510.9
2017-Dec-17 11:01N 37°33' W 025°28'611.0
2017-Dec-17 10:30N 37°32' W 025°21'511.0
2017-Dec-17 10:01N 37°32' W 025°14'510.8
2017-Dec-17 09:30N 37°31' W 025°07'611.1
2017-Dec-17 09:00N 37°31' W 025°00'510.9
2017-Dec-17 08:30N 37°30' W 024°53'510.7
2017-Dec-17 08:01N 37°30' W 024°47'510.9
2017-Dec-17 07:30N 37°29' W 024°40'510.7
2017-Dec-17 07:00N 37°28' W 024°33'510.4
2017-Dec-17 06:30N 37°28' W 024°27'510.1
2017-Dec-17 06:00N 37°27' W 024°20'510.4
2017-Dec-17 05:30N 37°27' W 024°14'510.6
2017-Dec-17 05:00N 37°26' W 024°07'510.5
2017-Dec-17 04:30N 37°26' W 024°01'510.5
2017-Dec-17 04:01N 37°25' W 023°54'510.5
2017-Dec-17 03:31N 37°25' W 023°47'510.4
2017-Dec-17 03:00N 37°24' W 023°41'510.6
2017-Dec-17 02:30N 37°24' W 023°34'610.6
2017-Dec-17 01:57N 37°23' W 023°27'510.5
2017-Dec-17 01:28N 37°22' W 023°20'710.6
2017-Dec-17 00:46N 37°22' W 023°11'  
2017-Dec-12 21:32N 36°26' W 002°12'110.6
2017-Dec-12 21:28N 36°26' W 002°11'510.5
2017-Dec-12 21:00N 36°27' W 002°05'510.4
2017-Dec-12 20:30N 36°28' W 001°58'3 6.9
2017-Dec-12 20:01N 36°30' W 001°55'4 7.1
2017-Dec-12 19:23N 36°29' W 001°49'  
2017-Dec-09 20:18N 36°38' E 014°06'510.9
2017-Dec-09 19:52N 36°36' E 014°11'411.1
2017-Dec-09 19:29N 36°34' E 014°16'510.7
2017-Dec-09 19:01N 36°33' E 014°22'610.8
2017-Dec-09 18:30N 36°30' E 014°28'510.6
2017-Dec-09 18:00N 36°29' E 014°35'5 9.0
2017-Dec-09 17:27N 36°26' E 014°40'4 8.5
2017-Dec-09 17:00N 36°25' E 014°44'610.8
2017-Dec-09 16:25N 36°23' E 014°52'  
Track history (hours):
 
Tides and Currents Weather Stations Pressure Air Temp Water Temp Dewpoint Dewpoint Depression Visibility Wind Speed Wind Dir Waves Ship Positions

Stonington Eagle

Last reported at 2017-Dec-18 14:00 UTC. Time now 2017-Dec-18 14:39 UTC.
Position N 38°04' W 031°15'.

Length 200 m; draft 11.6 m.

Type: Ship. MMSI: 538007450.

Date/timePositionNaut miles runAvg speedWind from/ knotsBaromVisibWave heightAir tempDewpointWater temp
2017-Dec-18 14:00N 38°04' W 031°15'18 9.1
2017-Dec-18 12:02N 38°02' W 030°53'4 9.4
2017-Dec-18 11:34N 38°02' W 030°47'3 9.2
2017-Dec-18 11:16N 38°01' W 030°44'15 9.3
2017-Dec-18 09:36N 37°59' W 030°24'1 9.2
2017-Dec-18 09:30N 37°59' W 030°23'5 9.3
2017-Dec-18 09:00N 37°59' W 030°17'5 9.5
2017-Dec-18 08:30N 37°58' W 030°11'5 9.8
2017-Dec-18 08:00N 37°58' W 030°05'5 9.5
2017-Dec-18 07:30N 37°57' W 029°59'5 9.5
2017-Dec-18 07:00N 37°57' W 029°53'5 9.5
2017-Dec-18 06:30N 37°56' W 029°47'5 9.7
2017-Dec-18 06:00N 37°55' W 029°41'5 9.9
2017-Dec-18 05:30N 37°55' W 029°35'5 9.9
2017-Dec-18 05:00N 37°54' W 029°29'5 9.7
2017-Dec-18 04:30N 37°54' W 029°23'510.2
2017-Dec-18 04:00N 37°53' W 029°16'510.5
2017-Dec-18 03:30N 37°53' W 029°09'510.3
2017-Dec-18 03:00N 37°52' W 029°03'510.4
2017-Dec-18 02:30N 37°52' W 028°56'510.4
2017-Dec-18 02:01N 37°51' W 028°50'510.3
2017-Dec-18 01:30N 37°51' W 028°43'510.6
2017-Dec-18 01:00N 37°50' W 028°37'510.8
2017-Dec-18 00:31N 37°49' W 028°30'510.6
2017-Dec-18 00:00N 37°49' W 028°23'510.6
2017-Dec-17 23:30N 37°48' W 028°17'510.5
2017-Dec-17 23:01N 37°47' W 028°10'510.8
2017-Dec-17 22:31N 37°47' W 028°03'510.8
2017-Dec-17 22:00N 37°46' W 027°57'510.6
2017-Dec-17 21:30N 37°46' W 027°50'510.8
2017-Dec-17 21:01N 37°45' W 027°43'611.0
2017-Dec-17 20:30N 37°44' W 027°36'510.7
2017-Dec-17 20:01N 37°44' W 027°29'510.7
2017-Dec-17 19:31N 37°43' W 027°23'510.7
2017-Dec-17 19:00N 37°43' W 027°16'510.5
2017-Dec-17 18:30N 37°42' W 027°09'510.6
2017-Dec-17 18:00N 37°41' W 027°03'510.8
2017-Dec-17 17:31N 37°41' W 026°56'510.9
2017-Dec-17 17:00N 37°40' W 026°49'510.8
2017-Dec-17 16:31N 37°40' W 026°42'611.1
2017-Dec-17 16:01N 37°39' W 026°35'611.1
2017-Dec-17 15:31N 37°38' W 026°28'510.8
2017-Dec-17 15:00N 37°38' W 026°22'510.8
2017-Dec-17 14:31N 37°37' W 026°15'510.6
2017-Dec-17 14:00N 37°37' W 026°08'510.4
2017-Dec-17 13:31N 37°36' W 026°02'611.0
2017-Dec-17 13:00N 37°35' W 025°55'611.1
2017-Dec-17 12:31N 37°35' W 025°48'510.7
2017-Dec-17 12:01N 37°34' W 025°41'510.7
2017-Dec-17 11:31N 37°34' W 025°35'510.9
2017-Dec-17 11:01N 37°33' W 025°28'611.0
2017-Dec-17 10:30N 37°32' W 025°21'511.0
2017-Dec-17 10:01N 37°32' W 025°14'510.8
2017-Dec-17 09:30N 37°31' W 025°07'611.1
2017-Dec-17 09:00N 37°31' W 025°00'510.9
2017-Dec-17 08:30N 37°30' W 024°53'510.7
2017-Dec-17 08:01N 37°30' W 024°47'510.9
2017-Dec-17 07:30N 37°29' W 024°40'510.7
2017-Dec-17 07:00N 37°28' W 024°33'510.4
2017-Dec-17 06:30N 37°28' W 024°27'510.1
2017-Dec-17 06:00N 37°27' W 024°20'510.4
2017-Dec-17 05:30N 37°27' W 024°14'510.6
2017-Dec-17 05:00N 37°26' W 024°07'510.5
2017-Dec-17 04:30N 37°26' W 024°01'510.5
2017-Dec-17 04:01N 37°25' W 023°54'510.5
2017-Dec-17 03:31N 37°25' W 023°47'510.4
2017-Dec-17 03:00N 37°24' W 023°41'510.6
2017-Dec-17 02:30N 37°24' W 023°34'610.6
2017-Dec-17 01:57N 37°23' W 023°27'510.5
2017-Dec-17 01:28N 37°22' W 023°20'710.6
2017-Dec-17 00:46N 37°22' W 023°11'  
2017-Dec-12 21:32N 36°26' W 002°12'110.6
2017-Dec-12 21:28N 36°26' W 002°11'510.5
2017-Dec-12 21:00N 36°27' W 002°05'510.4
2017-Dec-12 20:30N 36°28' W 001°58'3 6.9
2017-Dec-12 20:01N 36°30' W 001°55'4 7.1
2017-Dec-12 19:23N 36°29' W 001°49'  
2017-Dec-09 20:18N 36°38' E 014°06'510.9
2017-Dec-09 19:52N 36°36' E 014°11'411.1
2017-Dec-09 19:29N 36°34' E 014°16'510.7
2017-Dec-09 19:01N 36°33' E 014°22'610.8
2017-Dec-09 18:30N 36°30' E 014°28'510.6
2017-Dec-09 18:00N 36°29' E 014°35'5 9.0
2017-Dec-09 17:27N 36°26' E 014°40'4 8.5
2017-Dec-09 17:00N 36°25' E 014°44'610.8
2017-Dec-09 16:25N 36°23' E 014°52'  

Dump ship's entire track history